Upstream stations:
Downstream station:
SHEF ID: QUAO2 Spring River near Quapaw, OK
STATION TYPE:
Regulating: Stage = 20.00, Flow = 33676
PRECIP STAGE STAGE(2) RIV-FLOW BAT-LOAD
in ft ft cfs volt
Ccp-Rev Ccp-Rev Ccp-Rev Ccp-Rev Ccp-Rev
(US/Central)
04/05 00:00 0.00 7.61 7.88 2028 12.30
04/05 01:00 0.00 7.61 7.89 2028 12.27
04/05 02:00 0.00 7.63 7.90 2054 12.23
04/05 03:00 0.00 7.64 7.91 2068 12.22
04/05 04:00 0.00 7.66 7.91 2095 12.19
04/05 05:00 0.00 7.68 7.93 2123 12.16
04/05 06:00 0.00 7.70 7.96 2150 12.14
04/05 07:00 0.00 7.71 7.98 2164 12.14
04/05 08:00 0.02 7.72 7.99 2178 12.04
04/05 09:00 0.00 7.75 7.99 2220 12.24
04/05 10:00 0.00 7.79 8.02 2277 12.71
04/05 11:00 0.00 7.78 8.02 2263 13.26
04/05 12:00 0.00 7.80 8.05 2291 12.89
04/05 13:00 0.00 7.83 7.98 2334 13.26
04/05 14:00 0.00 7.84 8.03 2349 12.70
04/05 15:00 0.00 7.84 8.07 2349 12.57
04/05 16:00 0.00 7.85 8.07 2364 12.88
04/05 17:00 0.00 7.87 8.08 2393 12.84
04/05 18:00 0.00 7.89 8.04 2422 12.74
04/05 19:00 0.00 7.86 8.15 2378 12.65
04/05 20:00 0.00 7.91 8.16 2452 12.30
04/05 21:00 0.00 7.90 8.17 2437 12.24
04/05 22:00 0.00 7.88 8.17 2408 12.08
04/05 23:00 0.00 7.88 8.05 2408 12.15